createdAt,value
2022-11-29T00:00:30.027Z,101096.84
2022-11-29T00:02:56.642Z,101095.25
2022-11-29T00:05:23.407Z,101088.91
2022-11-29T00:07:50.096Z,101090.00
2022-11-29T00:10:16.735Z,101089.03
2022-11-29T00:12:43.363Z,101084.63
2022-11-29T00:15:09.969Z,101083.88
2022-11-29T00:17:36.615Z,101074.81
2022-11-29T00:20:03.386Z,101076.78
2022-11-29T00:22:30.244Z,101083.66
2022-11-29T00:24:56.816Z,101069.44
2022-11-29T00:27:23.480Z,101064.00
2022-11-29T00:29:50.073Z,101068.50
2022-11-29T00:32:16.649Z,101069.44
2022-11-29T00:34:43.459Z,101063.00
2022-11-29T00:37:10.282Z,101054.31
2022-11-29T00:39:36.826Z,101047.97
2022-11-29T00:42:03.540Z,101057.75
2022-11-29T00:44:30.172Z,101053.44
2022-11-29T00:46:56.796Z,101053.25
2022-11-29T00:49:24.342Z,101046.38
2022-11-29T00:51:51.016Z,101047.00
2022-11-29T00:54:17.597Z,101046.25
2022-11-29T00:56:45.458Z,101051.63
2022-11-29T00:59:12.045Z,101039.03
2022-11-29T01:01:38.748Z,101050.87
2022-11-29T01:04:05.354Z,101040.66
2022-11-29T01:06:31.914Z,101036.47
2022-11-29T01:08:58.477Z,101038.19
2022-11-29T01:11:26.261Z,101034.66
2022-11-29T01:13:58.173Z,101031.09
2022-11-29T01:16:24.947Z,101043.56
2022-11-29T01:18:51.590Z,101041.06
2022-11-29T01:21:20.743Z,101039.91
2022-11-29T01:23:48.105Z,101036.47
2022-11-29T01:26:23.451Z,101043.56
2022-11-29T01:28:50.615Z,101045.28
2022-11-29T01:31:22.774Z,101043.69
2022-11-29T01:33:49.354Z,101038.94
2022-11-29T01:36:15.922Z,101033.91
2022-11-29T01:38:42.590Z,101035.50
2022-11-29T01:41:12.742Z,101032.94
2022-11-29T01:44:15.737Z,101041.06
2022-11-29T01:46:44.318Z,101037.44
2022-11-29T01:49:21.353Z,101031.31
2022-11-29T01:51:50.433Z,101039.91
2022-11-29T01:54:16.998Z,101039.28
2022-11-29T01:56:43.619Z,101033.66
2022-11-29T01:59:12.685Z,101041.06
2022-11-29T02:01:39.345Z,101042.91
2022-11-29T02:04:06.102Z,101038.50
2022-11-29T02:06:33.274Z,101039.63
2022-11-29T02:08:59.874Z,101033.03
2022-11-29T02:11:48.072Z,101042.06
2022-11-29T02:14:26.322Z,101043.78
2022-11-29T02:17:05.884Z,101043.69
2022-11-29T02:20:02.315Z,101039.38
2022-11-29T02:22:56.923Z,101049.06
2022-11-29T02:26:04.873Z,101050.13
2022-11-29T02:28:49.823Z,101045.50
2022-11-29T02:31:44.105Z,101050.13
2022-11-29T02:34:19.862Z,101056.25
2022-11-29T02:36:52.129Z,101059.03
2022-11-29T02:39:49.514Z,101057.13
2022-11-29T02:42:56.847Z,101053.91
2022-11-29T02:45:23.715Z,101054.50
2022-11-29T02:48:14.528Z,101053.03
2022-11-29T02:51:12.189Z,101054.63
2022-11-29T02:53:44.868Z,101044.88
2022-11-29T02:56:27.489Z,101054.63
2022-11-29T02:59:15.514Z,101050.34
2022-11-29T03:01:48.004Z,101063.66
2022-11-29T03:04:34.026Z,101057.66
2022-11-29T03:07:11.620Z,101060.94
2022-11-29T03:09:46.374Z,101056.50
2022-11-29T03:12:27.123Z,101056.06
2022-11-29T03:15:03.511Z,101061.25
2022-11-29T03:18:00.960Z,101058.25
2022-11-29T03:20:48.958Z,101060.41
2022-11-29T03:23:36.958Z,101063.13
2022-11-29T03:26:12.644Z,101065.88
2022-11-29T03:28:46.301Z,101057.47
2022-11-29T03:31:19.264Z,101058.06
2022-11-29T03:34:06.094Z,101064.66
2022-11-29T03:37:09.133Z,101067.72
2022-11-29T03:39:49.689Z,101068.97
2022-11-29T03:42:19.939Z,101075.44
2022-11-29T03:44:57.713Z,101071.84
2022-11-29T03:47:28.393Z,101072.53
2022-11-29T03:49:59.482Z,101072.69
2022-11-29T03:52:49.752Z,101075.69
2022-11-29T03:55:56.707Z,101068.59
2022-11-29T03:58:27.207Z,101072.31
2022-11-29T04:01:20.225Z,101072.59
2022-11-29T04:04:18.016Z,101081.47
2022-11-29T04:07:19.963Z,101073.25
2022-11-29T04:10:14.521Z,101068.56
2022-11-29T04:13:18.857Z,101079.47
2022-11-29T04:16:11.583Z,101080.00
2022-11-29T04:18:46.981Z,101088.91
2022-11-29T04:21:32.066Z,101086.72
2022-11-29T04:24:19.993Z,101077.72
2022-11-29T04:27:17.605Z,101088.47
2022-11-29T04:29:50.309Z,101087.38
2022-11-29T04:32:34.830Z,101089.19
2022-11-29T04:35:51.846Z,101084.09
2022-11-29T04:39:00.097Z,101081.91
2022-11-29T04:41:41.315Z,101088.59
2022-11-29T04:44:16.949Z,101089.28
2022-11-29T04:46:59.989Z,101085.81
2022-11-29T04:49:51.182Z,101087.81
2022-11-29T04:52:42.949Z,101087.81
2022-11-29T04:55:30.720Z,101093.22
2022-11-29T04:58:18.913Z,101097.56
2022-11-29T05:01:06.967Z,101109.22
2022-11-29T05:03:57.389Z,101109.78
2022-11-29T05:06:44.943Z,101111.37
2022-11-29T05:09:17.522Z,101116.62
2022-11-29T05:11:53.041Z,101120.06
2022-11-29T05:14:25.422Z,101118.34
2022-11-29T05:17:07.130Z,101123.75
2022-11-29T05:19:47.412Z,101117.47
2022-11-29T05:22:23.406Z,101120.19
2022-11-29T05:25:31.577Z,101120.19
2022-11-29T05:28:10.583Z,101120.88
2022-11-29T05:31:20.252Z,101123.66
2022-11-29T05:34:07.013Z,101123.66
2022-11-29T05:36:48.805Z,101125.44
2022-11-29T05:39:39.439Z,101126.66
2022-11-29T05:42:13.987Z,101132.06
2022-11-29T05:44:46.096Z,101129.38
2022-11-29T05:47:16.655Z,101121.87
2022-11-29T05:49:57.271Z,101122.75
2022-11-29T05:52:42.152Z,101124.44
2022-11-29T05:55:11.814Z,101117.78
2022-11-29T05:57:53.410Z,101125.88
2022-11-29T06:00:20.084Z,101121.78
2022-11-29T06:03:13.132Z,101135.31
2022-11-29T06:06:00.732Z,101139.16
2022-11-29T06:08:45.697Z,101146.41
2022-11-29T06:11:27.981Z,101139.13
2022-11-29T06:14:36.210Z,101143.38
2022-11-29T06:17:25.373Z,101147.09
2022-11-29T06:20:19.267Z,101151.16
2022-11-29T06:23:07.712Z,101157.66
2022-11-29T06:25:42.719Z,101147.44
2022-11-29T06:28:19.580Z,101155.50
2022-11-29T06:31:08.173Z,101152.94
2022-11-29T06:34:04.063Z,101144.06
2022-11-29T06:37:05.544Z,101153.03
2022-11-29T06:39:32.335Z,101156.13
2022-11-29T06:41:58.894Z,101156.56
2022-11-29T06:44:25.707Z,101158.13
2022-11-29T06:47:00.030Z,101161.56
2022-11-29T06:49:48.777Z,101154.88
2022-11-29T06:52:21.240Z,101159.19
2022-11-29T06:55:15.940Z,101161.09
2022-11-29T06:58:03.804Z,101163.03
2022-11-29T07:00:52.775Z,101157.47
2022-11-29T07:03:28.717Z,101156.19
2022-11-29T07:05:55.871Z,101155.47
2022-11-29T07:08:23.491Z,101160.44
2022-11-29T07:10:53.162Z,101155.41
2022-11-29T07:13:20.128Z,101164.78
2022-11-29T07:16:00.709Z,101163.16
2022-11-29T07:18:40.662Z,101164.31
2022-11-29T07:21:37.689Z,101163.84
2022-11-29T07:24:28.685Z,101170.06
2022-11-29T07:27:10.395Z,101173.06
2022-11-29T07:29:52.275Z,101172.66
2022-11-29T07:32:43.643Z,101169.94
2022-11-29T07:35:32.744Z,101168.97
2022-11-29T07:38:41.144Z,101170.16
2022-11-29T07:41:29.147Z,101173.47
2022-11-29T07:44:13.844Z,101168.66
2022-11-29T07:46:40.492Z,101172.66
2022-11-29T07:49:10.314Z,101175.41
2022-11-29T07:51:36.856Z,101168.91
2022-11-29T07:54:03.547Z,101178.22
2022-11-29T07:56:30.185Z,101173.25
2022-11-29T07:58:56.877Z,101176.44
2022-11-29T08:01:23.634Z,101175.59
2022-11-29T08:03:50.298Z,101177.62
2022-11-29T08:06:23.892Z,101187.22
2022-11-29T08:08:50.481Z,101177.91
2022-11-29T08:11:17.029Z,101180.50
2022-11-29T08:13:43.607Z,101177.62
2022-11-29T08:16:15.850Z,101176.13
2022-11-29T08:18:42.481Z,101178.53
2022-11-29T08:21:09.025Z,101180.06
2022-11-29T08:23:35.613Z,101178.28
2022-11-29T08:26:02.638Z,101171.69
2022-11-29T08:28:29.225Z,101171.25
2022-11-29T08:31:06.177Z,101176.22
2022-11-29T08:33:35.140Z,101173.22
2022-11-29T08:36:09.327Z,101176.72
2022-11-29T08:38:35.927Z,101178.72
2022-11-29T08:41:06.820Z,101183.94
2022-11-29T08:43:33.581Z,101185.63
2022-11-29T08:46:00.329Z,101192.03
2022-11-29T08:48:26.978Z,101186.63
2022-11-29T08:50:53.907Z,101186.25
2022-11-29T08:53:39.941Z,101182.97
2022-11-29T08:56:31.890Z,101185.44
2022-11-29T08:58:53.975Z,101183.59
2022-11-29T09:01:20.789Z,101183.03
2022-11-29T09:03:59.423Z,101187.62
2022-11-29T09:06:27.329Z,101180.06
2022-11-29T09:08:57.140Z,101176.16
2022-11-29T09:11:24.598Z,101171.66
2022-11-29T09:13:52.757Z,101174.66
2022-11-29T09:16:20.841Z,101173.38
2022-11-29T09:18:51.913Z,101177.38
2022-11-29T09:21:18.911Z,101165.81
2022-11-29T09:23:45.597Z,101169.37
2022-11-29T09:26:16.777Z,101165.50
2022-11-29T09:28:43.423Z,101169.63
2022-11-29T09:31:12.814Z,101165.47
2022-11-29T09:33:39.887Z,101155.91
2022-11-29T09:36:07.611Z,101157.78
2022-11-29T09:38:34.445Z,101165.63
2022-11-29T09:41:03.920Z,101163.34
2022-11-29T09:43:57.011Z,101164.62
2022-11-29T09:46:23.528Z,101167.03
2022-11-29T09:49:18.150Z,101162.63
2022-11-29T09:51:59.885Z,101163.78
2022-11-29T09:54:49.992Z,101167.16
2022-11-29T09:57:17.535Z,101159.47
2022-11-29T09:59:47.412Z,101155.34
2022-11-29T10:02:21.603Z,101158.22
2022-11-29T10:04:57.385Z,101161.63
2022-11-29T10:07:33.288Z,101153.38
2022-11-29T10:10:08.453Z,101147.97
2022-11-29T10:12:39.856Z,101145.78
2022-11-29T10:15:22.968Z,101143.09
2022-11-29T10:18:23.269Z,101133.69
2022-11-29T10:20:51.199Z,101130.28
2022-11-29T10:23:29.546Z,101134.22
2022-11-29T10:25:56.799Z,101137.94
2022-11-29T10:28:31.378Z,101132.88
2022-11-29T10:31:25.094Z,101134.84
2022-11-29T10:33:53.795Z,101133.91
2022-11-29T10:36:20.309Z,101136.69
2022-11-29T10:38:46.986Z,101131.97
2022-11-29T10:41:15.912Z,101126.59
2022-11-29T10:43:43.323Z,101129.63
2022-11-29T10:46:15.781Z,101131.47
2022-11-29T10:48:42.474Z,101125.03
2022-11-29T10:51:15.371Z,101123.16
2022-11-29T10:53:41.986Z,101119.62
2022-11-29T10:56:27.148Z,101123.22
2022-11-29T10:59:07.853Z,101117.53
2022-11-29T11:01:41.296Z,101115.03
2022-11-29T11:04:10.890Z,101109.47
2022-11-29T11:06:52.280Z,101101.75
2022-11-29T11:09:28.459Z,101102.63
2022-11-29T11:11:56.498Z,101101.81
2022-11-29T11:14:28.510Z,101104.78
2022-11-29T11:16:55.444Z,101113.25
2022-11-29T11:19:30.360Z,101114.63
2022-11-29T11:21:58.218Z,101120.81
2022-11-29T11:24:29.660Z,101120.12
2022-11-29T11:26:56.317Z,101115.28
2022-11-29T11:29:25.548Z,101106.47
2022-11-29T11:31:56.642Z,101104.06
2022-11-29T11:34:35.981Z,101102.34
2022-11-29T11:37:14.659Z,101107.03
2022-11-29T11:39:45.121Z,101102.88
2022-11-29T11:42:36.454Z,101109.28
2022-11-29T11:45:12.614Z,101102.34
2022-11-29T11:47:43.201Z,101107.44
2022-11-29T11:50:15.643Z,101105.16
2022-11-29T11:52:54.593Z,101103.72
2022-11-29T11:55:21.065Z,101102.00
2022-11-29T11:58:09.740Z,101106.44
2022-11-29T12:01:02.254Z,101106.41
2022-11-29T12:03:24.931Z,101106.94
2022-11-29T12:05:51.737Z,101110.66
2022-11-29T12:08:18.327Z,101112.75
2022-11-29T12:10:44.918Z,101112.34
2022-11-29T12:13:24.183Z,101098.81
2022-11-29T12:15:50.860Z,101100.25
2022-11-29T12:18:39.696Z,101107.75
2022-11-29T12:21:16.707Z,101109.75
2022-11-29T12:24:02.451Z,101102.44
2022-11-29T12:26:59.598Z,101104.69
2022-11-29T12:29:18.368Z,101095.56
2022-11-29T12:31:48.183Z,101099.47
2022-11-29T12:34:34.030Z,101091.53
2022-11-29T12:37:06.467Z,101100.63
2022-11-29T12:40:08.399Z,101087.78
2022-11-29T12:42:54.192Z,101086.50
2022-11-29T12:45:32.844Z,101095.03
2022-11-29T12:48:22.543Z,101096.47
2022-11-29T12:51:07.687Z,101082.38
2022-11-29T12:53:55.886Z,101085.91
2022-11-29T12:56:26.189Z,101090.34
2022-11-29T12:59:10.888Z,101084.94
2022-11-29T13:02:12.490Z,101084.41
2022-11-29T13:04:55.017Z,101090.53
2022-11-29T13:07:30.825Z,101075.91
2022-11-29T13:10:11.417Z,101085.31
2022-11-29T13:12:42.849Z,101095.00
2022-11-29T13:15:17.659Z,101095.00
2022-11-29T13:18:06.371Z,101085.03
2022-11-29T13:20:59.750Z,101085.59
2022-11-29T13:24:07.204Z,101090.03
2022-11-29T13:26:26.830Z,101093.59
2022-11-29T13:28:53.471Z,101092.47
2022-11-29T13:31:21.592Z,101089.78
2022-11-29T13:34:00.331Z,101094.59
2022-11-29T13:36:47.920Z,101083.53
2022-11-29T13:39:32.672Z,101093.00
2022-11-29T13:42:14.296Z,101084.66
2022-11-29T13:44:53.174Z,101092.94
2022-11-29T13:47:19.784Z,101089.31
2022-11-29T13:50:02.820Z,101088.03
2022-11-29T13:52:37.235Z,101093.44
2022-11-29T13:55:12.293Z,101093.31
2022-11-29T13:58:16.674Z,101094.13
2022-11-29T14:00:44.211Z,101090.34
2022-11-29T14:03:20.250Z,101093.59
2022-11-29T14:05:47.006Z,101094.09
2022-11-29T14:08:37.704Z,101095.03
2022-11-29T14:11:14.018Z,101099.84
2022-11-29T14:13:49.956Z,101099.97
2022-11-29T14:16:31.364Z,101087.38
2022-11-29T14:19:10.143Z,101092.75
2022-11-29T14:22:09.774Z,101090.38
2022-11-29T14:24:39.279Z,101087.06
2022-11-29T14:27:05.734Z,101090.44
2022-11-29T14:29:47.668Z,101085.25
2022-11-29T14:32:24.159Z,101075.47
2022-11-29T14:34:56.823Z,101082.94
2022-11-29T14:38:05.512Z,101083.06
2022-11-29T14:40:47.515Z,101090.53
2022-11-29T14:43:36.151Z,101086.81
2022-11-29T14:46:15.015Z,101082.44
2022-11-29T14:48:57.081Z,101084.94
2022-11-29T14:51:25.016Z,101082.13
2022-11-29T14:54:18.091Z,101085.78
2022-11-29T14:56:45.099Z,101077.56
2022-11-29T14:59:49.224Z,101080.25
2022-11-29T15:02:25.260Z,101082.13
2022-11-29T15:04:53.637Z,101077.25
2022-11-29T15:07:30.158Z,101073.56
2022-11-29T15:09:59.804Z,101090.09
2022-11-29T15:12:28.701Z,101090.09
2022-11-29T15:15:14.073Z,101080.97
2022-11-29T15:17:55.237Z,101091.22
2022-11-29T15:20:55.094Z,101081.84
2022-11-29T15:23:21.694Z,101083.41
2022-11-29T15:25:50.093Z,101084.69
2022-11-29T15:28:27.401Z,101080.84
2022-11-29T15:31:13.428Z,101082.41
2022-11-29T15:33:40.873Z,101082.97
2022-11-29T15:36:09.096Z,101089.81
2022-11-29T15:38:43.589Z,101086.09
2022-11-29T15:41:30.333Z,101082.53
2022-11-29T15:44:06.503Z,101085.41
2022-11-29T15:46:34.427Z,101074.84
2022-11-29T15:49:16.261Z,101086.12
2022-11-29T15:51:42.817Z,101081.81
2022-11-29T15:54:39.238Z,101083.69
2022-11-29T15:57:12.142Z,101088.25
2022-11-29T15:59:40.182Z,101081.28
2022-11-29T16:02:29.452Z,101079.44
2022-11-29T16:05:16.772Z,101076.00
2022-11-29T16:07:44.186Z,101086.12
2022-11-29T16:10:13.310Z,101091.53
2022-11-29T16:12:57.887Z,101098.94
2022-11-29T16:15:32.129Z,101103.50
2022-11-29T16:18:06.126Z,101099.94
2022-11-29T16:20:32.744Z,101102.66
2022-11-29T16:23:04.036Z,101096.09
2022-11-29T16:25:36.037Z,101097.97
2022-11-29T16:28:05.946Z,101103.22
2022-11-29T16:30:32.536Z,101095.09
2022-11-29T16:32:59.490Z,101099.50
2022-11-29T16:35:33.968Z,101101.81
2022-11-29T16:38:03.432Z,101108.81
2022-11-29T16:40:31.416Z,101107.66
2022-11-29T16:43:04.304Z,101110.34
2022-11-29T16:45:38.417Z,101107.66
2022-11-29T16:48:31.458Z,101112.78
2022-11-29T16:51:27.081Z,101116.34
2022-11-29T16:53:53.971Z,101118.34
2022-11-29T16:56:25.129Z,101126.34
2022-11-29T16:59:25.892Z,101123.47
2022-11-29T17:01:47.897Z,101118.34
2022-11-29T17:04:24.066Z,101131.28
2022-11-29T17:06:52.344Z,101125.09
2022-11-29T17:09:30.550Z,101131.63
2022-11-29T17:12:01.516Z,101132.09
2022-11-29T17:14:28.769Z,101139.44
2022-11-29T17:16:55.484Z,101134.19
2022-11-29T17:19:23.828Z,101135.97
2022-11-29T17:21:51.439Z,101144.03
2022-11-29T17:24:19.347Z,101155.44
2022-11-29T17:26:46.269Z,101141.06
2022-11-29T17:29:13.670Z,101152.88
2022-11-29T17:31:40.438Z,101148.50
2022-11-29T17:34:07.092Z,101144.28
2022-11-29T17:36:33.767Z,101143.38
2022-11-29T17:39:00.447Z,101140.50
2022-11-29T17:41:27.910Z,101147.59
2022-11-29T17:43:55.329Z,101148.00
2022-11-29T17:46:22.767Z,101141.66
2022-11-29T17:48:49.639Z,101151.38
2022-11-29T17:51:49.985Z,101139.50
2022-11-29T17:54:04.717Z,101138.87
2022-11-29T17:56:31.383Z,101148.19
2022-11-29T17:58:59.056Z,101149.13
2022-11-29T18:01:30.794Z,101144.75
2022-11-29T18:03:59.020Z,101151.03
2022-11-29T18:06:30.752Z,101138.56
2022-11-29T18:08:58.741Z,101134.53
2022-11-29T18:11:30.223Z,101142.28
2022-11-29T18:13:57.499Z,101141.56
2022-11-29T18:16:26.049Z,101139.09
2022-11-29T18:19:07.034Z,101130.84
2022-11-29T18:21:34.056Z,101134.69
2022-11-29T18:24:01.192Z,101134.25
2022-11-29T18:26:28.727Z,101138.81
2022-11-29T18:28:55.327Z,101141.38
2022-11-29T18:31:23.607Z,101141.53
2022-11-29T18:33:52.396Z,101143.09
2022-11-29T18:36:21.226Z,101152.94
2022-11-29T18:38:48.147Z,101151.19
2022-11-29T18:41:19.095Z,101152.09
2022-11-29T18:43:46.299Z,101156.78
2022-11-29T18:46:17.868Z,101156.06
2022-11-29T18:48:44.994Z,101153.34
2022-11-29T18:51:15.522Z,101146.22
2022-11-29T18:53:42.802Z,101149.06
2022-11-29T18:56:15.650Z,101158.87
2022-11-29T18:58:45.867Z,101159.91
2022-11-29T19:01:16.651Z,101157.50
2022-11-29T19:03:45.063Z,101156.06
2022-11-29T19:06:15.915Z,101161.47
2022-11-29T19:08:42.786Z,101155.19
2022-11-29T19:11:13.601Z,101154.59
2022-11-29T19:13:40.390Z,101166.44
2022-11-29T19:16:08.301Z,101163.25
2022-11-29T19:18:35.203Z,101155.28
2022-11-29T19:21:09.383Z,101161.84
2022-11-29T19:23:36.001Z,101156.28
2022-11-29T19:26:06.347Z,101164.56
2022-11-29T19:28:32.973Z,101167.53
2022-11-29T19:30:59.657Z,101164.56
2022-11-29T19:33:26.283Z,101168.13
2022-11-29T19:35:52.830Z,101170.38
2022-11-29T19:38:19.406Z,101156.00
2022-11-29T19:40:45.967Z,101162.25
2022-11-29T19:43:12.562Z,101170.09
2022-11-29T19:45:40.340Z,101173.66
2022-11-29T19:48:06.934Z,101168.97
2022-11-29T19:50:33.511Z,101168.97
2022-11-29T19:53:00.221Z,101160.13
2022-11-29T19:55:26.898Z,101164.56
2022-11-29T19:57:55.500Z,101163.81
2022-11-29T20:00:22.476Z,101169.97
2022-11-29T20:02:49.156Z,101166.00
2022-11-29T20:05:15.816Z,101162.28
2022-11-29T20:07:42.403Z,101157.28
2022-11-29T20:10:09.378Z,101156.81
2022-11-29T20:12:35.979Z,101144.41
2022-11-29T20:15:02.584Z,101151.84
2022-11-29T20:17:29.160Z,101158.78
2022-11-29T20:19:55.824Z,101159.53
2022-11-29T20:22:22.432Z,101153.19
2022-11-29T20:24:49.009Z,101155.75
2022-11-29T20:27:15.586Z,101148.75
2022-11-29T20:29:42.189Z,101154.28
2022-11-29T20:32:08.787Z,101151.28
2022-11-29T20:34:35.582Z,101150.91
2022-11-29T20:37:08.472Z,101152.97
2022-11-29T20:39:34.921Z,101152.63
2022-11-29T20:42:20.444Z,101151.69
2022-11-29T20:44:53.744Z,101154.78
2022-11-29T20:47:22.241Z,101160.06
2022-11-29T20:49:49.107Z,101154.34
2022-11-29T20:52:39.879Z,101162.06
2022-11-29T20:55:06.770Z,101153.47
2022-11-29T20:57:33.384Z,101147.88
2022-11-29T21:00:00.023Z,101148.09
2022-11-29T21:02:26.603Z,101147.62
2022-11-29T21:04:53.166Z,101139.69
2022-11-29T21:07:19.837Z,101149.03
2022-11-29T21:09:46.484Z,101148.38
2022-11-29T21:12:13.415Z,101148.56
2022-11-29T21:14:40.259Z,101152.97
2022-11-29T21:17:07.873Z,101145.25
2022-11-29T21:19:34.658Z,101144.38
2022-11-29T21:22:40.950Z,101155.22
2022-11-29T21:25:19.338Z,101156.06
2022-11-29T21:27:46.149Z,101154.47
2022-11-29T21:30:20.631Z,101150.91
2022-11-29T21:32:47.962Z,101153.91
2022-11-29T21:35:15.203Z,101154.66
2022-11-29T21:37:41.771Z,101153.91
2022-11-29T21:40:09.414Z,101156.59
2022-11-29T21:42:36.380Z,101157.75
2022-11-29T21:45:04.346Z,101162.03
2022-11-29T21:47:31.887Z,101150.69
2022-11-29T21:49:58.441Z,101155.06
2022-11-29T21:52:25.050Z,101163.25
2022-11-29T21:54:51.621Z,101155.19
2022-11-29T21:57:18.238Z,101160.75
2022-11-29T21:59:44.766Z,101160.88
2022-11-29T22:02:11.448Z,101157.41
2022-11-29T22:04:38.113Z,101157.28
2022-11-29T22:07:04.706Z,101155.69
2022-11-29T22:09:31.247Z,101153.84
2022-11-29T22:11:58.946Z,101149.53
2022-11-29T22:14:25.553Z,101149.47
2022-11-29T22:16:55.474Z,101145.16
2022-11-29T22:19:22.754Z,101154.16
2022-11-29T22:21:58.073Z,101148.78
2022-11-29T22:24:25.950Z,101155.81
2022-11-29T22:26:52.790Z,101146.00
2022-11-29T22:29:19.464Z,101152.34
2022-11-29T22:31:47.298Z,101150.75
2022-11-29T22:34:13.958Z,101147.94
2022-11-29T22:36:40.646Z,101154.28
2022-11-29T22:39:07.378Z,101156.09
2022-11-29T22:41:34.834Z,101148.06
2022-11-29T22:44:01.430Z,101145.37
2022-11-29T22:46:28.437Z,101140.09
2022-11-29T22:48:56.258Z,101139.22
2022-11-29T22:51:33.814Z,101145.56
2022-11-29T22:54:02.259Z,101136.78
2022-11-29T22:56:30.332Z,101139.44
2022-11-29T22:58:56.984Z,101132.34
2022-11-29T23:01:25.170Z,101131.41
2022-11-29T23:03:54.249Z,101134.09
2022-11-29T23:06:22.893Z,101137.63
2022-11-29T23:08:49.932Z,101132.34
2022-11-29T23:11:18.677Z,101129.66
2022-11-29T23:13:45.476Z,101124.28
2022-11-29T23:16:13.977Z,101123.34
2022-11-29T23:18:42.249Z,101124.28
2022-11-29T23:21:10.522Z,101121.59
2022-11-29T23:23:37.156Z,101117.19
2022-11-29T23:26:06.439Z,101116.31
2022-11-29T23:28:33.717Z,101127.16
2022-11-29T23:31:00.310Z,101120.84
2022-11-29T23:33:27.276Z,101121.87
2022-11-29T23:36:04.826Z,101122.75
2022-11-29T23:38:31.451Z,101117.47
2022-11-29T23:40:58.041Z,101112.00
2022-11-29T23:43:24.648Z,101124.47
2022-11-29T23:45:51.252Z,101124.47
2022-11-29T23:48:17.846Z,101123.72
2022-11-29T23:50:44.450Z,101115.66
2022-11-29T23:53:14.611Z,101120.16
2022-11-29T23:55:42.117Z,101128.09
2022-11-29T23:58:09.122Z,101124.66
